CheckWX is a tool to help pilots better visualize weather data.  It is not intended as a substitute for an official pre-flight weather briefing.

19:51:42 UTC

KMBS METAR
Mbs International Airport
Saginaw, Michigan, USA
Current

59 mins ago

KMBS 261853Z 06004KT 10SM CLR 21/11 A3004 RMK AO2 SLP171 T02110106
Observed
May-26 @ 18:53 UTC
Wind
  • 060° at 4 KTS
Visibility
10 SM
Flight Rules
VFR
Cloud Levels
  • Clear skies
Temperature
21°C / 70°F
Dewpoint
11°C / 52°F
Humidity
53%
Altimeter
30.04" Hg
Pressure
1017.32 hPa
Previous

2 hours ago

KMBS 261753Z 02004KT 10SM CLR 21/12 A3005 RMK AO2 SLP174 T02110122 10211 20167 50001
Observed
May-26 @ 17:53 UTC
Wind
  • 020° at 4 KTS
Visibility
10 SM
Flight Rules
VFR
Cloud Levels
  • Clear skies
Temperature
21°C / 70°F
Dewpoint
12°C / 54°F
Humidity
57%
Altimeter
30.05" Hg
Pressure
1017.62 hPa
Previous

3 hours ago

KMBS 261653Z 00000KT 10SM CLR 20/12 A3007 RMK AO2 SLP179 T02000117
Observed
May-26 @ 16:53 UTC
Visibility
10 SM
Flight Rules
VFR
Cloud Levels
  • Clear skies
Temperature
20°C / 68°F
Dewpoint
12°C / 54°F
Humidity
60%
Altimeter
30.07" Hg
Pressure
1018.32 hPa